sensor_id;sensor_type;location;lat;lon;timestamp;P1;durP1;ratioP1;P2;durP2;ratioP2
11283;SDS011;5698;47.332;11.180;2023-07-08T00:00:18;8.23;;;5.53;;
11283;SDS011;5698;47.332;11.180;2023-07-08T00:02:46;6.33;;;5.23;;
11283;SDS011;5698;47.332;11.180;2023-07-08T00:05:14;8.00;;;5.33;;
11283;SDS011;5698;47.332;11.180;2023-07-08T00:07:43;7.70;;;4.93;;
11283;SDS011;5698;47.332;11.180;2023-07-08T00:10:13;8.80;;;5.40;;
11283;SDS011;5698;47.332;11.180;2023-07-08T00:12:43;8.60;;;6.47;;
11283;SDS011;5698;47.332;11.180;2023-07-08T00:15:11;7.47;;;5.63;;
11283;SDS011;5698;47.332;11.180;2023-07-08T00:17:39;7.63;;;5.60;;
11283;SDS011;5698;47.332;11.180;2023-07-08T00:20:17;7.67;;;6.03;;
11283;SDS011;5698;47.332;11.180;2023-07-08T00:22:54;6.40;;;5.07;;
11283;SDS011;5698;47.332;11.180;2023-07-08T00:25:22;7.40;;;5.10;;
11283;SDS011;5698;47.332;11.180;2023-07-08T00:27:49;7.00;;;5.90;;
11283;SDS011;5698;47.332;11.180;2023-07-08T00:30:23;8.00;;;5.43;;
11283;SDS011;5698;47.332;11.180;2023-07-08T00:32:54;7.03;;;5.67;;
11283;SDS011;5698;47.332;11.180;2023-07-08T00:35:22;7.53;;;5.07;;
11283;SDS011;5698;47.332;11.180;2023-07-08T00:37:52;8.37;;;5.30;;
11283;SDS011;5698;47.332;11.180;2023-07-08T00:40:26;6.40;;;5.30;;
11283;SDS011;5698;47.332;11.180;2023-07-08T00:42:54;8.00;;;5.67;;
11283;SDS011;5698;47.332;11.180;2023-07-08T00:45:28;6.47;;;5.07;;
11283;SDS011;5698;47.332;11.180;2023-07-08T00:48:05;8.70;;;5.50;;
11283;SDS011;5698;47.332;11.180;2023-07-08T00:50:40;6.53;;;5.27;;
11283;SDS011;5698;47.332;11.180;2023-07-08T00:53:24;6.93;;;5.57;;
11283;SDS011;5698;47.332;11.180;2023-07-08T00:55:54;6.70;;;5.10;;
11283;SDS011;5698;47.332;11.180;2023-07-08T00:58:25;6.20;;;5.23;;
11283;SDS011;5698;47.332;11.180;2023-07-08T01:01:00;6.97;;;5.23;;
11283;SDS011;5698;47.332;11.180;2023-07-08T01:03:31;7.90;;;5.27;;
11283;SDS011;5698;47.332;11.180;2023-07-08T01:06:07;7.00;;;5.20;;
11283;SDS011;5698;47.332;11.180;2023-07-08T01:08:34;5.67;;;4.90;;
11283;SDS011;5698;47.332;11.180;2023-07-08T01:11:01;8.37;;;5.67;;
11283;SDS011;5698;47.332;11.180;2023-07-08T01:13:31;8.30;;;5.90;;
11283;SDS011;5698;47.332;11.180;2023-07-08T01:16:00;7.70;;;5.40;;
11283;SDS011;5698;47.332;11.180;2023-07-08T01:18:27;6.57;;;5.13;;
11283;SDS011;5698;47.332;11.180;2023-07-08T01:21:00;7.37;;;5.17;;
11283;SDS011;5698;47.332;11.180;2023-07-08T01:23:32;7.33;;;4.87;;
11283;SDS011;5698;47.332;11.180;2023-07-08T01:26:01;7.50;;;5.10;;
11283;SDS011;5698;47.332;11.180;2023-07-08T01:28:28;6.47;;;5.07;;
11283;SDS011;5698;47.332;11.180;2023-07-08T01:30:56;6.77;;;5.33;;
11283;SDS011;5698;47.332;11.180;2023-07-08T01:33:24;8.17;;;5.73;;
11283;SDS011;5698;47.332;11.180;2023-07-08T01:35:51;6.87;;;5.27;;
11283;SDS011;5698;47.332;11.180;2023-07-08T01:38:22;6.37;;;4.90;;
11283;SDS011;5698;47.332;11.180;2023-07-08T01:40:53;6.37;;;4.77;;
11283;SDS011;5698;47.332;11.180;2023-07-08T01:43:21;7.07;;;5.17;;
11283;SDS011;5698;47.332;11.180;2023-07-08T01:45:48;6.23;;;4.67;;
11283;SDS011;5698;47.332;11.180;2023-07-08T01:48:18;6.17;;;5.13;;
11283;SDS011;5698;47.332;11.180;2023-07-08T01:50:48;8.37;;;4.87;;
11283;SDS011;5698;47.332;11.180;2023-07-08T01:53:19;6.30;;;5.20;;
11283;SDS011;5698;47.332;11.180;2023-07-08T01:55:48;7.17;;;5.33;;
11283;SDS011;5698;47.332;11.180;2023-07-08T01:58:16;6.57;;;4.57;;
11283;SDS011;5698;47.332;11.180;2023-07-08T02:00:43;11.57;;;4.97;;
11283;SDS011;5698;47.332;11.180;2023-07-08T02:03:13;5.87;;;4.80;;
11283;SDS011;5698;47.332;11.180;2023-07-08T02:05:40;5.67;;;4.70;;
11283;SDS011;5698;47.332;11.180;2023-07-08T02:08:07;5.83;;;4.63;;
11283;SDS011;5698;47.332;11.180;2023-07-08T02:10:34;7.97;;;4.97;;
11283;SDS011;5698;47.332;11.180;2023-07-08T02:13:02;5.97;;;4.60;;
11283;SDS011;5698;47.332;11.180;2023-07-08T02:15:31;8.93;;;4.77;;
11283;SDS011;5698;47.332;11.180;2023-07-08T02:17:58;6.67;;;5.33;;
11283;SDS011;5698;47.332;11.180;2023-07-08T02:20:25;8.73;;;5.23;;
11283;SDS011;5698;47.332;11.180;2023-07-08T02:22:52;6.67;;;4.77;;
11283;SDS011;5698;47.332;11.180;2023-07-08T02:25:19;6.07;;;4.93;;
11283;SDS011;5698;47.332;11.180;2023-07-08T02:27:46;6.17;;;4.67;;
11283;SDS011;5698;47.332;11.180;2023-07-08T02:30:13;6.60;;;5.30;;
11283;SDS011;5698;47.332;11.180;2023-07-08T02:32:41;6.10;;;4.80;;
11283;SDS011;5698;47.332;11.180;2023-07-08T02:35:21;7.00;;;4.97;;
11283;SDS011;5698;47.332;11.180;2023-07-08T02:37:49;6.40;;;5.23;;
11283;SDS011;5698;47.332;11.180;2023-07-08T02:40:16;7.13;;;4.77;;
11283;SDS011;5698;47.332;11.180;2023-07-08T02:42:43;6.00;;;4.90;;
11283;SDS011;5698;47.332;11.180;2023-07-08T02:45:12;5.83;;;4.53;;
11283;SDS011;5698;47.332;11.180;2023-07-08T02:47:39;5.73;;;4.60;;
11283;SDS011;5698;47.332;11.180;2023-07-08T02:50:08;7.13;;;4.53;;
11283;SDS011;5698;47.332;11.180;2023-07-08T02:52:36;7.77;;;4.60;;
11283;SDS011;5698;47.332;11.180;2023-07-08T02:55:03;7.47;;;5.13;;
11283;SDS011;5698;47.332;11.180;2023-07-08T02:57:31;6.40;;;5.10;;
11283;SDS011;5698;47.332;11.180;2023-07-08T02:59:58;7.30;;;4.43;;
11283;SDS011;5698;47.332;11.180;2023-07-08T03:02:25;6.60;;;4.70;;
11283;SDS011;5698;47.332;11.180;2023-07-08T03:04:54;6.87;;;4.57;;
11283;SDS011;5698;47.332;11.180;2023-07-08T03:07:26;7.33;;;4.20;;
11283;SDS011;5698;47.332;11.180;2023-07-08T03:09:53;5.70;;;4.67;;
11283;SDS011;5698;47.332;11.180;2023-07-08T03:12:20;6.60;;;4.60;;
11283;SDS011;5698;47.332;11.180;2023-07-08T03:14:47;6.10;;;4.73;;
11283;SDS011;5698;47.332;11.180;2023-07-08T03:17:13;6.70;;;4.63;;
11283;SDS011;5698;47.332;11.180;2023-07-08T03:19:43;7.03;;;4.80;;
11283;SDS011;5698;47.332;11.180;2023-07-08T03:22:11;6.37;;;4.43;;
11283;SDS011;5698;47.332;11.180;2023-07-08T03:24:38;7.57;;;4.63;;
11283;SDS011;5698;47.332;11.180;2023-07-08T03:27:11;5.30;;;4.40;;
11283;SDS011;5698;47.332;11.180;2023-07-08T03:29:38;8.27;;;4.73;;
11283;SDS011;5698;47.332;11.180;2023-07-08T03:32:05;5.77;;;4.90;;
11283;SDS011;5698;47.332;11.180;2023-07-08T03:34:34;6.80;;;3.93;;
11283;SDS011;5698;47.332;11.180;2023-07-08T03:37:01;5.50;;;4.70;;
11283;SDS011;5698;47.332;11.180;2023-07-08T03:39:30;5.87;;;4.60;;
11283;SDS011;5698;47.332;11.180;2023-07-08T03:41:57;5.90;;;4.60;;
11283;SDS011;5698;47.332;11.180;2023-07-08T03:44:25;5.00;;;4.30;;
11283;SDS011;5698;47.332;11.180;2023-07-08T03:46:51;5.93;;;4.13;;
11283;SDS011;5698;47.332;11.180;2023-07-08T03:49:19;8.57;;;4.47;;
11283;SDS011;5698;47.332;11.180;2023-07-08T03:51:49;5.67;;;3.87;;
11283;SDS011;5698;47.332;11.180;2023-07-08T03:54:20;7.17;;;4.73;;
11283;SDS011;5698;47.332;11.180;2023-07-08T03:56:49;6.10;;;3.90;;
11283;SDS011;5698;47.332;11.180;2023-07-08T03:59:16;6.97;;;4.47;;
11283;SDS011;5698;47.332;11.180;2023-07-08T04:01:44;8.13;;;4.17;;
11283;SDS011;5698;47.332;11.180;2023-07-08T04:04:12;6.77;;;4.43;;
11283;SDS011;5698;47.332;11.180;2023-07-08T04:06:41;5.50;;;4.60;;
11283;SDS011;5698;47.332;11.180;2023-07-08T04:09:08;6.83;;;4.13;;
11283;SDS011;5698;47.332;11.180;2023-07-08T04:11:35;5.13;;;3.97;;
11283;SDS011;5698;47.332;11.180;2023-07-08T04:14:03;7.10;;;4.23;;
11283;SDS011;5698;47.332;11.180;2023-07-08T04:16:31;6.27;;;4.37;;
11283;SDS011;5698;47.332;11.180;2023-07-08T04:19:07;5.60;;;4.50;;
11283;SDS011;5698;47.332;11.180;2023-07-08T04:21:39;6.60;;;4.30;;
11283;SDS011;5698;47.332;11.180;2023-07-08T04:24:08;6.13;;;4.20;;
11283;SDS011;5698;47.332;11.180;2023-07-08T04:26:35;6.23;;;4.10;;
11283;SDS011;5698;47.332;11.180;2023-07-08T04:29:06;6.30;;;4.27;;
11283;SDS011;5698;47.332;11.180;2023-07-08T04:31:36;4.70;;;3.80;;
11283;SDS011;5698;47.332;11.180;2023-07-08T04:34:03;5.90;;;3.90;;
11283;SDS011;5698;47.332;11.180;2023-07-08T04:36:31;6.93;;;4.30;;
11283;SDS011;5698;47.332;11.180;2023-07-08T04:38:58;9.23;;;5.33;;
11283;SDS011;5698;47.332;11.180;2023-07-08T04:41:25;6.40;;;4.90;;
11283;SDS011;5698;47.332;11.180;2023-07-08T04:43:52;6.40;;;4.80;;
11283;SDS011;5698;47.332;11.180;2023-07-08T04:46:25;5.93;;;4.37;;
11283;SDS011;5698;47.332;11.180;2023-07-08T04:49:00;9.10;;;5.47;;
11283;SDS011;5698;47.332;11.180;2023-07-08T04:51:28;7.87;;;4.63;;
11283;SDS011;5698;47.332;11.180;2023-07-08T04:53:55;7.27;;;4.83;;
11283;SDS011;5698;47.332;11.180;2023-07-08T04:56:22;5.57;;;4.43;;
11283;SDS011;5698;47.332;11.180;2023-07-08T04:58:51;5.83;;;4.67;;
11283;SDS011;5698;47.332;11.180;2023-07-08T05:01:18;6.17;;;4.80;;
11283;SDS011;5698;47.332;11.180;2023-07-08T05:03:46;10.90;;;4.77;;
11283;SDS011;5698;47.332;11.180;2023-07-08T05:06:13;7.43;;;4.67;;
11283;SDS011;5698;47.332;11.180;2023-07-08T05:08:40;8.07;;;4.60;;
11283;SDS011;5698;47.332;11.180;2023-07-08T05:11:07;6.20;;;4.97;;
11283;SDS011;5698;47.332;11.180;2023-07-08T05:13:34;6.13;;;4.23;;
11283;SDS011;5698;47.332;11.180;2023-07-08T05:16:01;4.50;;;3.73;;
11283;SDS011;5698;47.332;11.180;2023-07-08T05:18:28;8.73;;;4.73;;
11283;SDS011;5698;47.332;11.180;2023-07-08T05:20:56;5.60;;;4.57;;
11283;SDS011;5698;47.332;11.180;2023-07-08T05:23:23;5.43;;;4.03;;
11283;SDS011;5698;47.332;11.180;2023-07-08T05:25:51;5.33;;;4.10;;
11283;SDS011;5698;47.332;11.180;2023-07-08T05:28:19;7.87;;;4.50;;
11283;SDS011;5698;47.332;11.180;2023-07-08T05:30:51;4.80;;;3.87;;
11283;SDS011;5698;47.332;11.180;2023-07-08T05:33:20;4.90;;;4.30;;
11283;SDS011;5698;47.332;11.180;2023-07-08T05:35:47;5.23;;;4.60;;
11283;SDS011;5698;47.332;11.180;2023-07-08T05:38:15;5.17;;;4.03;;
11283;SDS011;5698;47.332;11.180;2023-07-08T05:40:43;6.27;;;3.87;;
11283;SDS011;5698;47.332;11.180;2023-07-08T05:43:14;4.77;;;4.13;;
11283;SDS011;5698;47.332;11.180;2023-07-08T05:45:41;6.53;;;4.57;;
11283;SDS011;5698;47.332;11.180;2023-07-08T05:48:08;4.67;;;3.93;;
11283;SDS011;5698;47.332;11.180;2023-07-08T05:50:35;6.47;;;4.27;;
11283;SDS011;5698;47.332;11.180;2023-07-08T05:53:02;8.90;;;4.20;;
11283;SDS011;5698;47.332;11.180;2023-07-08T05:55:32;7.30;;;3.97;;
11283;SDS011;5698;47.332;11.180;2023-07-08T05:57:59;4.13;;;3.73;;
11283;SDS011;5698;47.332;11.180;2023-07-08T06:00:26;4.53;;;3.87;;
11283;SDS011;5698;47.332;11.180;2023-07-08T06:02:53;5.10;;;4.00;;
11283;SDS011;5698;47.332;11.180;2023-07-08T06:05:20;4.27;;;3.47;;
11283;SDS011;5698;47.332;11.180;2023-07-08T06:07:47;4.47;;;3.97;;
11283;SDS011;5698;47.332;11.180;2023-07-08T06:10:14;6.33;;;3.70;;
11283;SDS011;5698;47.332;11.180;2023-07-08T06:12:42;4.13;;;3.70;;
11283;SDS011;5698;47.332;11.180;2023-07-08T06:15:09;4.80;;;3.60;;
11283;SDS011;5698;47.332;11.180;2023-07-08T06:17:37;3.63;;;3.10;;
11283;SDS011;5698;47.332;11.180;2023-07-08T06:20:04;5.53;;;3.13;;
11283;SDS011;5698;47.332;11.180;2023-07-08T06:22:32;4.20;;;2.90;;
11283;SDS011;5698;47.332;11.180;2023-07-08T06:24:59;8.27;;;4.00;;
11283;SDS011;5698;47.332;11.180;2023-07-08T06:27:26;5.67;;;3.53;;
11283;SDS011;5698;47.332;11.180;2023-07-08T06:29:55;5.50;;;3.43;;
11283;SDS011;5698;47.332;11.180;2023-07-08T06:32:22;5.27;;;3.33;;
11283;SDS011;5698;47.332;11.180;2023-07-08T06:34:49;5.03;;;4.07;;
11283;SDS011;5698;47.332;11.180;2023-07-08T06:37:15;4.87;;;3.73;;
11283;SDS011;5698;47.332;11.180;2023-07-08T06:39:42;5.60;;;3.77;;
11283;SDS011;5698;47.332;11.180;2023-07-08T06:42:09;5.60;;;3.30;;
11283;SDS011;5698;47.332;11.180;2023-07-08T06:44:36;7.23;;;3.70;;
11283;SDS011;5698;47.332;11.180;2023-07-08T06:47:05;5.80;;;3.40;;
11283;SDS011;5698;47.332;11.180;2023-07-08T06:49:32;4.43;;;3.10;;
11283;SDS011;5698;47.332;11.180;2023-07-08T06:51:59;5.77;;;3.30;;
11283;SDS011;5698;47.332;11.180;2023-07-08T06:54:26;5.63;;;3.30;;
11283;SDS011;5698;47.332;11.180;2023-07-08T06:56:53;4.07;;;3.20;;
11283;SDS011;5698;47.332;11.180;2023-07-08T06:59:20;4.70;;;3.50;;
11283;SDS011;5698;47.332;11.180;2023-07-08T07:01:47;5.87;;;3.93;;
11283;SDS011;5698;47.332;11.180;2023-07-08T07:04:15;4.70;;;3.37;;
11283;SDS011;5698;47.332;11.180;2023-07-08T07:06:42;5.20;;;3.77;;
11283;SDS011;5698;47.332;11.180;2023-07-08T07:09:09;5.80;;;3.40;;
11283;SDS011;5698;47.332;11.180;2023-07-08T07:11:36;5.37;;;3.40;;
11283;SDS011;5698;47.332;11.180;2023-07-08T07:14:03;4.97;;;3.53;;
11283;SDS011;5698;47.332;11.180;2023-07-08T07:16:30;6.07;;;3.53;;
11283;SDS011;5698;47.332;11.180;2023-07-08T07:18:57;5.67;;;3.47;;
11283;SDS011;5698;47.332;11.180;2023-07-08T07:21:25;6.33;;;3.47;;
11283;SDS011;5698;47.332;11.180;2023-07-08T07:23:53;7.87;;;4.27;;
11283;SDS011;5698;47.332;11.180;2023-07-08T07:26:20;6.80;;;3.80;;
11283;SDS011;5698;47.332;11.180;2023-07-08T07:28:47;3.57;;;3.27;;
11283;SDS011;5698;47.332;11.180;2023-07-08T07:31:14;6.37;;;3.90;;
11283;SDS011;5698;47.332;11.180;2023-07-08T07:33:41;6.03;;;3.70;;
11283;SDS011;5698;47.332;11.180;2023-07-08T07:36:08;6.63;;;3.60;;
11283;SDS011;5698;47.332;11.180;2023-07-08T07:38:37;5.07;;;3.27;;
11283;SDS011;5698;47.332;11.180;2023-07-08T07:41:04;8.00;;;3.77;;
11283;SDS011;5698;47.332;11.180;2023-07-08T07:43:32;5.80;;;3.73;;
11283;SDS011;5698;47.332;11.180;2023-07-08T07:45:59;6.33;;;3.13;;
11283;SDS011;5698;47.332;11.180;2023-07-08T07:48:26;4.47;;;3.60;;
11283;SDS011;5698;47.332;11.180;2023-07-08T07:50:53;6.53;;;3.63;;
11283;SDS011;5698;47.332;11.180;2023-07-08T07:53:20;4.67;;;3.70;;
11283;SDS011;5698;47.332;11.180;2023-07-08T07:55:54;6.17;;;3.47;;
11283;SDS011;5698;47.332;11.180;2023-07-08T07:58:22;6.97;;;3.90;;
11283;SDS011;5698;47.332;11.180;2023-07-08T08:00:49;5.13;;;3.67;;
11283;SDS011;5698;47.332;11.180;2023-07-08T08:03:16;3.77;;;3.40;;
11283;SDS011;5698;47.332;11.180;2023-07-08T08:05:43;6.43;;;3.33;;
11283;SDS011;5698;47.332;11.180;2023-07-08T08:08:10;7.00;;;3.83;;
11283;SDS011;5698;47.332;11.180;2023-07-08T08:10:37;6.40;;;3.60;;
11283;SDS011;5698;47.332;11.180;2023-07-08T08:13:05;5.57;;;3.80;;
11283;SDS011;5698;47.332;11.180;2023-07-08T08:15:33;5.90;;;3.50;;
11283;SDS011;5698;47.332;11.180;2023-07-08T08:18:00;4.43;;;3.30;;
11283;SDS011;5698;47.332;11.180;2023-07-08T08:20:28;6.80;;;4.33;;
11283;SDS011;5698;47.332;11.180;2023-07-08T08:22:55;4.60;;;3.63;;
11283;SDS011;5698;47.332;11.180;2023-07-08T08:25:22;5.37;;;3.40;;
11283;SDS011;5698;47.332;11.180;2023-07-08T08:27:50;7.47;;;3.33;;
11283;SDS011;5698;47.332;11.180;2023-07-08T08:30:19;5.20;;;3.87;;
11283;SDS011;5698;47.332;11.180;2023-07-08T08:32:46;4.50;;;3.63;;
11283;SDS011;5698;47.332;11.180;2023-07-08T08:35:13;6.63;;;4.00;;
11283;SDS011;5698;47.332;11.180;2023-07-08T08:37:40;6.60;;;3.70;;
11283;SDS011;5698;47.332;11.180;2023-07-08T08:40:08;4.43;;;3.17;;
11283;SDS011;5698;47.332;11.180;2023-07-08T08:42:41;7.53;;;3.97;;
11283;SDS011;5698;47.332;11.180;2023-07-08T08:45:15;4.30;;;3.60;;
11283;SDS011;5698;47.332;11.180;2023-07-08T08:47:47;5.10;;;3.27;;
11283;SDS011;5698;47.332;11.180;2023-07-08T08:50:28;6.37;;;3.40;;
11283;SDS011;5698;47.332;11.180;2023-07-08T08:52:58;4.80;;;3.47;;
11283;SDS011;5698;47.332;11.180;2023-07-08T08:55:27;4.80;;;3.83;;
11283;SDS011;5698;47.332;11.180;2023-07-08T08:57:57;4.27;;;3.23;;
11283;SDS011;5698;47.332;11.180;2023-07-08T09:00:35;4.93;;;3.50;;
11283;SDS011;5698;47.332;11.180;2023-07-08T09:03:11;5.57;;;3.47;;
11283;SDS011;5698;47.332;11.180;2023-07-08T09:05:41;5.67;;;3.43;;
11283;SDS011;5698;47.332;11.180;2023-07-08T09:08:10;4.27;;;3.40;;
11283;SDS011;5698;47.332;11.180;2023-07-08T09:10:44;5.27;;;3.63;;
11283;SDS011;5698;47.332;11.180;2023-07-08T09:13:15;5.83;;;3.50;;
11283;SDS011;5698;47.332;11.180;2023-07-08T09:15:49;4.87;;;3.40;;
11283;SDS011;5698;47.332;11.180;2023-07-08T09:18:25;4.97;;;3.47;;
11283;SDS011;5698;47.332;11.180;2023-07-08T09:21:13;5.47;;;3.60;;
11283;SDS011;5698;47.332;11.180;2023-07-08T09:23:46;5.93;;;3.47;;
11283;SDS011;5698;47.332;11.180;2023-07-08T09:26:16;4.87;;;3.20;;
11283;SDS011;5698;47.332;11.180;2023-07-08T09:28:47;5.33;;;3.70;;
11283;SDS011;5698;47.332;11.180;2023-07-08T09:31:21;4.00;;;3.00;;
11283;SDS011;5698;47.332;11.180;2023-07-08T09:33:50;6.40;;;3.63;;
11283;SDS011;5698;47.332;11.180;2023-07-08T09:36:21;5.70;;;3.80;;
11283;SDS011;5698;47.332;11.180;2023-07-08T09:38:50;4.60;;;3.47;;
11283;SDS011;5698;47.332;11.180;2023-07-08T09:41:30;4.70;;;3.50;;
11283;SDS011;5698;47.332;11.180;2023-07-08T09:44:05;6.53;;;3.10;;
11283;SDS011;5698;47.332;11.180;2023-07-08T09:46:41;6.57;;;3.37;;
11283;SDS011;5698;47.332;11.180;2023-07-08T09:49:09;4.37;;;2.70;;
11283;SDS011;5698;47.332;11.180;2023-07-08T09:51:48;4.40;;;2.93;;
11283;SDS011;5698;47.332;11.180;2023-07-08T09:54:16;6.00;;;3.20;;
11283;SDS011;5698;47.332;11.180;2023-07-08T09:56:44;5.47;;;3.20;;
11283;SDS011;5698;47.332;11.180;2023-07-08T09:59:23;7.60;;;3.70;;
11283;SDS011;5698;47.332;11.180;2023-07-08T10:01:58;4.63;;;3.17;;
11283;SDS011;5698;47.332;11.180;2023-07-08T10:04:26;4.10;;;3.07;;
11283;SDS011;5698;47.332;11.180;2023-07-08T10:06:54;4.57;;;3.30;;
11283;SDS011;5698;47.332;11.180;2023-07-08T10:09:23;4.80;;;3.30;;
11283;SDS011;5698;47.332;11.180;2023-07-08T10:11:52;3.93;;;3.53;;
11283;SDS011;5698;47.332;11.180;2023-07-08T10:14:26;7.47;;;4.20;;
11283;SDS011;5698;47.332;11.180;2023-07-08T10:16:57;4.47;;;3.27;;
11283;SDS011;5698;47.332;11.180;2023-07-08T10:19:25;6.60;;;3.53;;
11283;SDS011;5698;47.332;11.180;2023-07-08T10:21:55;5.47;;;3.67;;
11283;SDS011;5698;47.332;11.180;2023-07-08T10:24:37;3.72;;;3.28;;
11283;SDS011;5698;47.332;11.180;2023-07-08T10:27:14;4.57;;;3.22;;
11283;SDS011;5698;47.332;11.180;2023-07-08T10:29:48;6.65;;;3.85;;
11283;SDS011;5698;47.332;11.180;2023-07-08T10:32:27;7.38;;;3.92;;
11283;SDS011;5698;47.332;11.180;2023-07-08T10:35:01;3.95;;;3.10;;
11283;SDS011;5698;47.332;11.180;2023-07-08T10:37:37;4.32;;;3.10;;
11283;SDS011;5698;47.332;11.180;2023-07-08T10:43:14;5.00;;;3.05;;
11283;SDS011;5698;47.332;11.180;2023-07-08T10:45:57;6.47;;;3.55;;
11283;SDS011;5698;47.332;11.180;2023-07-08T10:48:39;6.78;;;3.42;;
11283;SDS011;5698;47.332;11.180;2023-07-08T10:51:19;5.60;;;3.10;;
11283;SDS011;5698;47.332;11.180;2023-07-08T10:56:46;4.80;;;3.33;;
11283;SDS011;5698;47.332;11.180;2023-07-08T10:59:19;4.60;;;3.00;;
11283;SDS011;5698;47.332;11.180;2023-07-08T11:02:00;5.25;;;3.47;;
11283;SDS011;5698;47.332;11.180;2023-07-08T11:04:47;4.35;;;3.20;;
11283;SDS011;5698;47.332;11.180;2023-07-08T11:07:26;4.78;;;2.88;;
11283;SDS011;5698;47.332;11.180;2023-07-08T11:09:59;4.53;;;2.92;;
11283;SDS011;5698;47.332;11.180;2023-07-08T11:12:31;5.25;;;3.00;;
11283;SDS011;5698;47.332;11.180;2023-07-08T11:15:05;7.80;;;3.45;;
11283;SDS011;5698;47.332;11.180;2023-07-08T11:17:42;4.30;;;3.25;;
11283;SDS011;5698;47.332;11.180;2023-07-08T11:20:16;4.80;;;2.90;;
11283;SDS011;5698;47.332;11.180;2023-07-08T11:22:49;5.95;;;3.55;;
11283;SDS011;5698;47.332;11.180;2023-07-08T11:25:21;5.38;;;3.55;;
11283;SDS011;5698;47.332;11.180;2023-07-08T11:27:53;7.15;;;3.75;;
11283;SDS011;5698;47.332;11.180;2023-07-08T11:30:23;6.30;;;2.88;;
11283;SDS011;5698;47.332;11.180;2023-07-08T11:32:55;4.45;;;2.85;;
11283;SDS011;5698;47.332;11.180;2023-07-08T11:35:35;5.47;;;3.13;;
11283;SDS011;5698;47.332;11.180;2023-07-08T11:38:05;5.35;;;3.30;;
11283;SDS011;5698;47.332;11.180;2023-07-08T11:40:39;6.50;;;3.70;;
11283;SDS011;5698;47.332;11.180;2023-07-08T11:43:17;4.80;;;3.22;;
11283;SDS011;5698;47.332;11.180;2023-07-08T11:45:46;5.85;;;3.22;;
11283;SDS011;5698;47.332;11.180;2023-07-08T11:48:16;6.53;;;3.40;;
11283;SDS011;5698;47.332;11.180;2023-07-08T11:50:48;6.68;;;3.60;;
11283;SDS011;5698;47.332;11.180;2023-07-08T11:53:31;4.72;;;3.25;;
11283;SDS011;5698;47.332;11.180;2023-07-08T11:56:04;5.20;;;3.40;;
11283;SDS011;5698;47.332;11.180;2023-07-08T12:01:38;4.35;;;3.15;;
11283;SDS011;5698;47.332;11.180;2023-07-08T12:04:20;6.60;;;3.53;;
11283;SDS011;5698;47.332;11.180;2023-07-08T12:07:01;5.63;;;3.58;;
11283;SDS011;5698;47.332;11.180;2023-07-08T12:09:44;4.60;;;3.38;;
11283;SDS011;5698;47.332;11.180;2023-07-08T12:12:16;4.18;;;3.45;;
11283;SDS011;5698;47.332;11.180;2023-07-08T12:14:49;6.68;;;3.42;;
11283;SDS011;5698;47.332;11.180;2023-07-08T12:17:18;4.07;;;3.15;;
11283;SDS011;5698;47.332;11.180;2023-07-08T12:19:45;4.93;;;3.45;;
11283;SDS011;5698;47.332;11.180;2023-07-08T12:22:16;5.18;;;3.30;;
11283;SDS011;5698;47.332;11.180;2023-07-08T12:24:44;5.50;;;3.25;;
11283;SDS011;5698;47.332;11.180;2023-07-08T12:27:10;6.00;;;3.67;;
11283;SDS011;5698;47.332;11.180;2023-07-08T12:29:37;5.85;;;3.20;;
11283;SDS011;5698;47.332;11.180;2023-07-08T12:32:05;6.20;;;3.40;;
11283;SDS011;5698;47.332;11.180;2023-07-08T12:34:35;4.47;;;3.28;;
11283;SDS011;5698;47.332;11.180;2023-07-08T12:37:02;8.75;;;3.42;;
11283;SDS011;5698;47.332;11.180;2023-07-08T12:39:33;4.80;;;3.20;;
11283;SDS011;5698;47.332;11.180;2023-07-08T12:42:00;5.10;;;3.23;;
11283;SDS011;5698;47.332;11.180;2023-07-08T12:44:29;4.37;;;3.40;;
11283;SDS011;5698;47.332;11.180;2023-07-08T12:47:00;9.13;;;3.57;;
11283;SDS011;5698;47.332;11.180;2023-07-08T12:49:28;6.47;;;3.50;;
11283;SDS011;5698;47.332;11.180;2023-07-08T12:51:55;5.32;;;3.22;;
11283;SDS011;5698;47.332;11.180;2023-07-08T12:54:22;5.20;;;3.03;;
11283;SDS011;5698;47.332;11.180;2023-07-08T12:56:50;4.90;;;3.20;;
11283;SDS011;5698;47.332;11.180;2023-07-08T12:59:19;4.73;;;3.27;;
11283;SDS011;5698;47.332;11.180;2023-07-08T13:01:49;4.80;;;3.40;;
11283;SDS011;5698;47.332;11.180;2023-07-08T13:04:18;5.77;;;3.57;;
11283;SDS011;5698;47.332;11.180;2023-07-08T13:06:46;7.20;;;3.87;;
11283;SDS011;5698;47.332;11.180;2023-07-08T13:09:24;3.80;;;3.30;;
11283;SDS011;5698;47.332;11.180;2023-07-08T13:12:03;4.27;;;3.57;;
11283;SDS011;5698;47.332;11.180;2023-07-08T13:14:37;5.40;;;3.27;;
11283;SDS011;5698;47.332;11.180;2023-07-08T13:17:08;4.97;;;3.15;;
11283;SDS011;5698;47.332;11.180;2023-07-08T13:19:38;4.15;;;3.28;;
11283;SDS011;5698;47.332;11.180;2023-07-08T13:22:08;6.97;;;3.30;;
11283;SDS011;5698;47.332;11.180;2023-07-08T13:24:38;3.53;;;3.22;;
11283;SDS011;5698;47.332;11.180;2023-07-08T13:27:08;6.18;;;3.30;;
11283;SDS011;5698;47.332;11.180;2023-07-08T13:29:42;4.60;;;3.20;;
11283;SDS011;5698;47.332;11.180;2023-07-08T13:32:10;4.93;;;3.13;;
11283;SDS011;5698;47.332;11.180;2023-07-08T13:34:37;5.20;;;2.88;;
11283;SDS011;5698;47.332;11.180;2023-07-08T13:37:08;4.78;;;3.10;;
11283;SDS011;5698;47.332;11.180;2023-07-08T13:39:37;5.93;;;3.47;;
11283;SDS011;5698;47.332;11.180;2023-07-08T13:42:07;4.82;;;3.00;;
11283;SDS011;5698;47.332;11.180;2023-07-08T13:44:34;6.40;;;3.75;;
11283;SDS011;5698;47.332;11.180;2023-07-08T13:47:18;5.20;;;3.80;;
11283;SDS011;5698;47.332;11.180;2023-07-08T13:49:47;4.20;;;3.10;;
11283;SDS011;5698;47.332;11.180;2023-07-08T13:52:18;4.43;;;2.95;;
11283;SDS011;5698;47.332;11.180;2023-07-08T13:54:48;4.03;;;3.10;;
11283;SDS011;5698;47.332;11.180;2023-07-08T13:57:20;3.83;;;2.72;;
11283;SDS011;5698;47.332;11.180;2023-07-08T13:59:49;4.63;;;2.83;;
11283;SDS011;5698;47.332;11.180;2023-07-08T14:02:18;8.47;;;3.57;;
11283;SDS011;5698;47.332;11.180;2023-07-08T14:04:48;5.50;;;3.10;;
11283;SDS011;5698;47.332;11.180;2023-07-08T14:07:17;6.30;;;3.57;;
11283;SDS011;5698;47.332;11.180;2023-07-08T14:09:45;8.07;;;3.70;;
11283;SDS011;5698;47.332;11.180;2023-07-08T14:12:12;5.73;;;3.53;;
11283;SDS011;5698;47.332;11.180;2023-07-08T14:14:40;7.60;;;3.17;;
11283;SDS011;5698;47.332;11.180;2023-07-08T14:17:08;5.20;;;3.20;;
11283;SDS011;5698;47.332;11.180;2023-07-08T14:19:37;5.13;;;2.80;;
11283;SDS011;5698;47.332;11.180;2023-07-08T14:22:09;4.73;;;3.10;;
11283;SDS011;5698;47.332;11.180;2023-07-08T14:24:47;5.87;;;3.37;;
11283;SDS011;5698;47.332;11.180;2023-07-08T14:27:14;5.63;;;3.30;;
11283;SDS011;5698;47.332;11.180;2023-07-08T14:29:45;5.47;;;3.47;;
11283;SDS011;5698;47.332;11.180;2023-07-08T14:32:14;4.13;;;3.13;;
11283;SDS011;5698;47.332;11.180;2023-07-08T14:34:47;4.83;;;3.10;;
11283;SDS011;5698;47.332;11.180;2023-07-08T14:37:16;4.10;;;3.10;;
11283;SDS011;5698;47.332;11.180;2023-07-08T14:39:43;4.47;;;3.20;;
11283;SDS011;5698;47.332;11.180;2023-07-08T14:42:11;3.90;;;2.90;;
11283;SDS011;5698;47.332;11.180;2023-07-08T14:44:39;5.53;;;3.20;;
11283;SDS011;5698;47.332;11.180;2023-07-08T14:47:10;4.37;;;3.23;;
11283;SDS011;5698;47.332;11.180;2023-07-08T14:49:38;4.20;;;3.10;;
11283;SDS011;5698;47.332;11.180;2023-07-08T14:52:06;6.90;;;3.47;;
11283;SDS011;5698;47.332;11.180;2023-07-08T14:54:33;4.17;;;3.13;;
11283;SDS011;5698;47.332;11.180;2023-07-08T14:57:01;4.47;;;3.03;;
11283;SDS011;5698;47.332;11.180;2023-07-08T14:59:30;4.23;;;3.10;;
11283;SDS011;5698;47.332;11.180;2023-07-08T15:02:00;4.50;;;2.90;;
11283;SDS011;5698;47.332;11.180;2023-07-08T15:04:38;6.20;;;3.40;;
11283;SDS011;5698;47.332;11.180;2023-07-08T15:07:07;4.33;;;3.40;;
11283;SDS011;5698;47.332;11.180;2023-07-08T15:09:35;5.00;;;3.00;;
11283;SDS011;5698;47.332;11.180;2023-07-08T15:12:02;4.20;;;3.27;;